createdAt,value
2018-05-08T00:01:50.851Z,1.83
2018-05-08T00:04:18.533Z,1.73
2018-05-08T00:06:46.191Z,1.97
2018-05-08T00:09:14.058Z,1.70
2018-05-08T00:11:41.771Z,1.73
2018-05-08T00:14:09.584Z,1.80
2018-05-08T00:16:37.348Z,1.67
2018-05-08T00:19:05.071Z,1.60
2018-05-08T00:21:32.884Z,1.77
2018-05-08T00:24:00.630Z,1.60
2018-05-08T00:26:28.350Z,1.90
2018-05-08T00:28:56.113Z,1.93
2018-05-08T00:31:23.931Z,1.60
2018-05-08T00:33:51.647Z,2.07
2018-05-08T00:36:19.464Z,1.90
2018-05-08T00:38:47.180Z,2.00
2018-05-08T00:41:14.995Z,1.97
2018-05-08T00:43:42.862Z,1.57
2018-05-08T00:46:10.523Z,1.83
2018-05-08T00:48:38.251Z,1.87
2018-05-08T00:51:05.943Z,2.00
2018-05-08T00:53:33.656Z,1.70
2018-05-08T00:56:01.473Z,1.90
2018-05-08T00:58:29.146Z,2.10
2018-05-08T01:00:56.905Z,1.83
2018-05-08T01:03:24.664Z,1.80
2018-05-08T01:05:52.435Z,1.70
2018-05-08T01:08:20.301Z,2.20
2018-05-08T01:10:48.027Z,1.90
2018-05-08T01:13:15.831Z,1.93
2018-05-08T01:15:43.594Z,2.10
2018-05-08T01:18:11.360Z,1.93
2018-05-08T01:20:39.066Z,2.10
2018-05-08T01:23:06.786Z,1.90
2018-05-08T01:25:34.550Z,1.67
2018-05-08T01:28:02.315Z,1.80
2018-05-08T01:30:30.080Z,1.67
2018-05-08T01:32:57.798Z,1.87
2018-05-08T01:35:25.608Z,1.70
2018-05-08T01:37:53.476Z,1.50
2018-05-08T01:40:21.133Z,1.77
2018-05-08T01:42:48.902Z,1.93
2018-05-08T01:45:16.627Z,2.20
2018-05-08T01:47:44.328Z,1.77
2018-05-08T01:50:12.094Z,1.93
2018-05-08T01:52:39.859Z,1.70
2018-05-08T01:55:07.724Z,2.30
2018-05-08T01:57:35.382Z,2.33
2018-05-08T02:00:03.152Z,2.07
2018-05-08T02:02:31.022Z,1.77
2018-05-08T02:04:58.886Z,2.57
2018-05-08T02:07:26.540Z,1.70
2018-05-08T02:09:54.297Z,1.70
2018-05-08T02:12:22.076Z,2.23
2018-05-08T02:14:49.841Z,2.27
2018-05-08T02:17:17.552Z,2.20
2018-05-08T02:19:45.379Z,1.60
2018-05-08T02:22:13.136Z,1.87
2018-05-08T02:24:40.901Z,1.73
2018-05-08T02:27:08.663Z,1.90
2018-05-08T02:29:36.409Z,1.90
2018-05-08T02:32:04.192Z,1.73
2018-05-08T02:34:32.060Z,1.73
2018-05-08T02:36:59.824Z,2.00
2018-05-08T02:39:27.483Z,2.17
2018-05-08T02:41:55.164Z,2.50
2018-05-08T02:44:23.012Z,2.30
2018-05-08T02:46:50.727Z,1.87
2018-05-08T02:49:18.545Z,1.43
2018-05-08T02:51:46.309Z,1.73
2018-05-08T02:54:14.073Z,1.93
2018-05-08T02:56:41.838Z,1.80
2018-05-08T02:59:09.602Z,1.93
2018-05-08T03:01:37.365Z,1.90
2018-05-08T03:04:05.091Z,1.70
2018-05-08T03:06:32.901Z,1.87
2018-05-08T03:09:00.727Z,2.37
2018-05-08T03:11:28.528Z,1.80
2018-05-08T03:13:56.291Z,1.80
2018-05-08T03:16:24.161Z,2.17
2018-05-08T03:18:51.869Z,2.03
2018-05-08T03:21:19.684Z,1.83
2018-05-08T03:23:47.343Z,2.20
2018-05-08T03:26:15.113Z,2.00
2018-05-08T03:28:42.840Z,1.83
2018-05-08T03:31:10.642Z,2.40
2018-05-08T03:33:38.406Z,2.50
2018-05-08T03:36:06.234Z,2.43
2018-05-08T03:38:34.037Z,2.60
2018-05-08T03:41:01.868Z,2.00
2018-05-08T03:43:29.569Z,2.40
2018-05-08T03:45:57.332Z,2.17
2018-05-08T03:48:25.092Z,1.77
2018-05-08T03:50:52.850Z,2.00
2018-05-08T03:53:20.625Z,1.87
2018-05-08T03:55:48.287Z,1.77
2018-05-08T03:58:16.051Z,2.00
2018-05-08T04:00:55.592Z,2.10
2018-05-08T04:03:35.030Z,2.17
2018-05-08T04:09:03.220Z,1.83
2018-05-08T04:11:31.091Z,2.37
2018-05-08T04:13:58.754Z,2.53
2018-05-08T04:16:26.525Z,2.10
2018-05-08T04:18:54.171Z,2.00
2018-05-08T04:21:22.014Z,2.40
2018-05-08T04:23:49.751Z,2.33
2018-05-08T04:26:17.680Z,2.30
2018-05-08T04:28:45.384Z,2.20
2018-05-08T04:31:13.155Z,2.03
2018-05-08T04:33:40.968Z,1.80
2018-05-08T04:36:08.834Z,2.40
2018-05-08T04:38:36.550Z,1.80
2018-05-08T04:41:04.298Z,2.50
2018-05-08T04:43:32.058Z,2.00
2018-05-08T04:45:59.715Z,2.30
2018-05-08T04:48:27.517Z,2.20
2018-05-08T04:50:55.323Z,2.60
2018-05-08T04:53:23.089Z,2.43
2018-05-08T04:55:50.934Z,2.17
2018-05-08T04:58:18.722Z,2.37
2018-05-08T05:00:46.587Z,2.53
2018-05-08T05:03:15.170Z,2.50
2018-05-08T05:05:42.935Z,2.50
2018-05-08T05:08:10.700Z,1.73
2018-05-08T05:10:38.561Z,2.37
2018-05-08T05:13:06.284Z,2.57
2018-05-08T05:15:33.985Z,2.33
2018-05-08T05:18:01.718Z,2.30
2018-05-08T05:20:29.433Z,1.93
2018-05-08T05:22:57.183Z,2.30
2018-05-08T05:25:25.027Z,2.70
2018-05-08T05:27:52.612Z,2.60
2018-05-08T05:30:20.801Z,2.47
2018-05-08T05:32:48.553Z,2.20
2018-05-08T05:35:16.413Z,2.83
2018-05-08T05:37:44.131Z,2.40
2018-05-08T05:40:11.945Z,2.33
2018-05-08T05:42:39.851Z,2.40
2018-05-08T05:45:07.680Z,2.73
2018-05-08T05:47:35.546Z,2.40
2018-05-08T05:50:03.286Z,2.30
2018-05-08T05:52:31.076Z,2.33
2018-05-08T05:54:58.799Z,2.60
2018-05-08T05:57:26.604Z,3.10
2018-05-08T05:59:54.335Z,2.40
2018-05-08T06:02:22.134Z,2.50
2018-05-08T06:04:49.797Z,2.60
2018-05-08T06:07:17.672Z,2.43
2018-05-08T06:09:45.527Z,2.13
2018-05-08T06:12:13.396Z,1.97
2018-05-08T06:14:41.162Z,2.47
2018-05-08T06:17:08.927Z,2.00
2018-05-08T06:19:36.739Z,2.30
2018-05-08T06:22:04.555Z,1.90
2018-05-08T06:24:32.324Z,2.60
2018-05-08T06:26:59.981Z,2.20
2018-05-08T06:29:27.709Z,2.30
2018-05-08T06:31:55.400Z,2.60
2018-05-08T06:34:23.174Z,2.30
2018-05-08T06:36:51.041Z,1.97
2018-05-08T06:39:18.807Z,2.13
2018-05-08T06:41:46.644Z,2.17
2018-05-08T06:44:14.457Z,2.23
2018-05-08T06:46:42.331Z,2.30
2018-05-08T06:49:10.175Z,1.77
2018-05-08T06:51:37.945Z,1.77
2018-05-08T06:54:05.595Z,1.77
2018-05-08T06:56:33.362Z,1.07
2018-05-08T06:59:01.029Z,1.30
2018-05-08T07:01:28.785Z,0.63
2018-05-08T07:03:56.509Z,1.43
2018-05-08T07:06:24.318Z,1.57
2018-05-08T07:08:52.082Z,1.00
2018-05-08T07:11:19.845Z,0.93
2018-05-08T07:13:47.613Z,0.83
2018-05-08T07:16:15.536Z,0.67
2018-05-08T07:18:43.139Z,1.00
2018-05-08T07:21:10.901Z,0.77
2018-05-08T07:23:38.558Z,0.70
2018-05-08T07:26:06.434Z,1.27
2018-05-08T07:28:34.138Z,0.90
2018-05-08T07:31:01.954Z,1.07
2018-05-08T07:33:29.766Z,1.17
2018-05-08T07:35:57.483Z,0.60
2018-05-08T07:38:25.204Z,0.77
2018-05-08T07:40:53.019Z,1.10
2018-05-08T07:43:20.784Z,0.90
2018-05-08T07:45:48.569Z,1.13
2018-05-08T07:48:16.415Z,1.20
2018-05-08T07:50:44.144Z,1.60
2018-05-08T07:53:11.842Z,1.03
2018-05-08T07:55:39.607Z,1.20
2018-05-08T07:58:07.266Z,0.70
2018-05-08T08:00:34.931Z,1.00
2018-05-08T08:03:02.687Z,0.63
2018-05-08T08:05:30.351Z,0.83
2018-05-08T08:07:58.117Z,1.63
2018-05-08T08:10:25.886Z,1.50
2018-05-08T08:12:53.752Z,1.10
2018-05-08T08:15:21.518Z,1.10
2018-05-08T08:17:49.385Z,0.80
2018-05-08T08:20:17.253Z,1.37
2018-05-08T08:22:44.915Z,1.30
2018-05-08T08:25:12.683Z,0.77
2018-05-08T08:27:40.447Z,1.90
2018-05-08T08:30:08.208Z,0.90
2018-05-08T08:32:36.024Z,0.97
2018-05-08T08:35:03.850Z,1.30
2018-05-08T08:37:31.707Z,1.60
2018-05-08T08:39:59.365Z,0.87
2018-05-08T08:42:27.093Z,1.50
2018-05-08T08:44:54.897Z,1.37
2018-05-08T08:47:22.603Z,1.53
2018-05-08T08:49:50.324Z,1.70
2018-05-08T08:52:18.092Z,1.10
2018-05-08T08:54:45.807Z,1.60
2018-05-08T08:57:13.573Z,1.60
2018-05-08T08:59:41.282Z,1.10
2018-05-08T09:02:08.942Z,1.20
2018-05-08T09:04:36.648Z,1.60
2018-05-08T09:07:04.369Z,1.60
2018-05-08T09:09:32.032Z,1.23
2018-05-08T09:11:59.848Z,1.23
2018-05-08T09:14:27.663Z,1.47
2018-05-08T09:16:55.387Z,1.20
2018-05-08T09:19:23.193Z,1.43
2018-05-08T09:21:50.854Z,1.30
2018-05-08T09:24:18.563Z,1.20
2018-05-08T09:26:46.385Z,1.13
2018-05-08T09:29:14.216Z,1.30
2018-05-08T09:31:41.911Z,1.33
2018-05-08T09:34:09.677Z,1.13
2018-05-08T09:36:38.322Z,0.93
2018-05-08T09:39:06.948Z,1.90
2018-05-08T09:41:34.813Z,0.77
2018-05-08T09:44:03.004Z,1.80
2018-05-08T09:46:30.753Z,1.00
2018-05-08T09:48:58.517Z,1.40
2018-05-08T09:51:26.283Z,1.27
2018-05-08T09:53:54.045Z,1.03
2018-05-08T09:56:21.811Z,1.50
2018-05-08T09:58:49.466Z,1.40
2018-05-08T10:01:17.241Z,1.40
2018-05-08T10:03:45.179Z,1.10
2018-05-08T10:06:12.972Z,0.90
2018-05-08T10:08:40.735Z,0.80
2018-05-08T10:11:08.461Z,0.80
2018-05-08T10:13:36.265Z,1.17
2018-05-08T10:16:03.926Z,1.00
2018-05-08T10:18:31.567Z,1.07
2018-05-08T10:20:59.252Z,1.27
2018-05-08T10:23:27.022Z,1.23
2018-05-08T10:25:54.686Z,1.00
2018-05-08T10:28:22.430Z,1.90
2018-05-08T10:30:50.320Z,0.87
2018-05-08T10:33:18.177Z,1.13
2018-05-08T10:35:45.836Z,1.27
2018-05-08T10:38:13.498Z,1.13
2018-05-08T10:40:41.131Z,1.47
2018-05-08T10:43:09.028Z,1.30
2018-05-08T10:45:36.793Z,1.67
2018-05-08T10:48:04.454Z,1.20
2018-05-08T10:50:32.221Z,1.20
2018-05-08T10:53:00.086Z,1.03
2018-05-08T10:55:27.847Z,1.03
2018-05-08T10:57:55.557Z,1.70
2018-05-08T11:00:23.174Z,1.53
2018-05-08T11:02:50.935Z,1.30
2018-05-08T11:05:18.708Z,1.70
2018-05-08T11:07:46.572Z,1.60
2018-05-08T11:10:14.233Z,1.73
2018-05-08T11:12:41.986Z,0.70
2018-05-08T11:15:09.657Z,1.23
2018-05-08T11:17:37.368Z,1.20
2018-05-08T11:20:05.189Z,1.43
2018-05-08T11:22:33.006Z,0.70
2018-05-08T11:25:00.819Z,1.33
2018-05-08T11:27:28.687Z,1.20
2018-05-08T11:29:56.403Z,1.83
2018-05-08T11:32:24.216Z,1.57
2018-05-08T11:34:51.980Z,1.13
2018-05-08T11:37:20.359Z,1.17
2018-05-08T11:39:48.072Z,1.50
2018-05-08T11:42:15.888Z,1.60
2018-05-08T11:44:43.844Z,1.60
2018-05-08T11:47:11.511Z,0.90
2018-05-08T11:49:39.290Z,1.50
2018-05-08T11:52:07.050Z,2.00
2018-05-08T11:54:34.709Z,1.37
2018-05-08T11:57:02.367Z,1.43
2018-05-08T11:59:30.038Z,1.20
2018-05-08T12:01:57.904Z,0.80
2018-05-08T12:04:25.668Z,1.50
2018-05-08T12:06:53.332Z,1.00
2018-05-08T12:09:21.095Z,1.50
2018-05-08T12:11:48.794Z,1.40
2018-05-08T12:14:16.514Z,1.30
2018-05-08T12:16:44.229Z,1.20
2018-05-08T12:19:12.047Z,0.83
2018-05-08T12:21:39.768Z,1.30
2018-05-08T12:24:07.575Z,1.30
2018-05-08T12:26:35.426Z,1.23
2018-05-08T12:29:03.110Z,1.37
2018-05-08T12:31:30.859Z,0.87
2018-05-08T12:33:58.521Z,0.80
2018-05-08T12:36:26.467Z,0.60
2018-05-08T12:38:54.275Z,0.77
2018-05-08T12:41:21.927Z,1.10
2018-05-08T12:43:49.687Z,1.37
2018-05-08T12:46:17.458Z,1.10
2018-05-08T12:48:45.324Z,1.27
2018-05-08T12:51:12.992Z,1.00
2018-05-08T12:53:40.752Z,0.40
2018-05-08T12:56:08.469Z,1.10
2018-05-08T12:58:36.221Z,1.50
2018-05-08T13:01:04.077Z,0.83
2018-05-08T13:03:31.809Z,1.30
2018-05-08T13:05:59.472Z,1.42
2018-05-08T13:08:27.339Z,1.70
2018-05-08T13:10:55.078Z,1.33
2018-05-08T13:13:22.865Z,1.40
2018-05-08T13:15:50.633Z,1.20
2018-05-08T13:18:18.509Z,1.50
2018-05-08T13:20:46.263Z,1.27
2018-05-08T13:23:14.028Z,0.90
2018-05-08T13:25:41.682Z,0.93
2018-05-08T13:28:09.454Z,1.13
2018-05-08T13:30:37.116Z,1.13
2018-05-08T13:33:04.779Z,0.93
2018-05-08T13:35:32.435Z,1.20
2018-05-08T13:38:00.923Z,0.87
2018-05-08T13:40:28.637Z,1.50
2018-05-08T13:42:56.405Z,1.20
2018-05-08T13:45:24.113Z,0.90
2018-05-08T13:47:51.842Z,0.90
2018-05-08T13:50:19.750Z,1.40
2018-05-08T13:52:47.512Z,1.40
2018-05-08T13:55:15.179Z,1.30
2018-05-08T13:57:43.040Z,1.20
2018-05-08T14:00:10.726Z,1.43
2018-05-08T14:02:38.569Z,1.10
2018-05-08T14:05:06.334Z,0.70
2018-05-08T14:07:34.050Z,1.20
2018-05-08T14:10:01.757Z,1.00
2018-05-08T14:12:29.526Z,1.03
2018-05-08T14:14:57.296Z,1.13
2018-05-08T14:17:25.153Z,0.70
2018-05-08T14:19:52.864Z,0.77
2018-05-08T14:22:20.683Z,1.10
2018-05-08T14:24:48.482Z,0.70
2018-05-08T14:27:16.213Z,1.00
2018-05-08T14:29:44.186Z,0.90
2018-05-08T14:32:11.791Z,1.00
2018-05-08T14:34:39.473Z,0.97
2018-05-08T14:37:07.098Z,1.17
2018-05-08T14:39:34.832Z,0.80
2018-05-08T14:42:02.488Z,1.10
2018-05-08T14:44:30.257Z,0.67
2018-05-08T14:46:58.329Z,0.70
2018-05-08T14:49:26.134Z,0.97
2018-05-08T14:51:53.809Z,0.90
2018-05-08T14:54:21.519Z,1.10
2018-05-08T14:56:49.181Z,1.10
2018-05-08T14:59:17.040Z,1.30
2018-05-08T15:01:44.823Z,1.30
2018-05-08T15:04:12.659Z,0.93
2018-05-08T15:06:40.857Z,1.30
2018-05-08T15:09:08.620Z,1.47
2018-05-08T15:11:36.353Z,1.00
2018-05-08T15:14:04.639Z,1.10
2018-05-08T15:16:32.429Z,0.90
2018-05-08T15:21:55.963Z,0.93
2018-05-08T15:24:23.745Z,0.70
2018-05-08T15:26:51.400Z,0.70
2018-05-08T15:29:19.166Z,1.60
2018-05-08T15:31:47.323Z,1.13
2018-05-08T15:34:15.047Z,1.07
2018-05-08T15:36:42.776Z,1.30
2018-05-08T15:39:10.537Z,1.00
2018-05-08T15:41:38.199Z,1.40
2018-05-08T15:44:06.168Z,1.20
2018-05-08T15:46:33.830Z,1.20
2018-05-08T15:49:01.598Z,1.20
2018-05-08T15:51:29.360Z,0.87
2018-05-08T15:53:57.227Z,0.70
2018-05-08T15:56:24.950Z,0.90
2018-05-08T15:58:52.755Z,0.70
2018-05-08T16:01:20.519Z,1.20
2018-05-08T16:03:48.285Z,1.67
2018-05-08T16:06:15.892Z,1.90
2018-05-08T16:08:43.603Z,1.10
2018-05-08T16:11:11.199Z,1.20
2018-05-08T16:13:39.034Z,1.17
2018-05-08T16:16:06.734Z,0.93
2018-05-08T16:18:34.555Z,1.37
2018-05-08T16:21:02.254Z,1.23
2018-05-08T16:23:30.093Z,1.00
2018-05-08T16:25:57.753Z,0.93
2018-05-08T16:28:25.621Z,1.20
2018-05-08T16:30:53.286Z,1.10
2018-05-08T16:33:21.560Z,1.00
2018-05-08T16:35:49.332Z,1.20
2018-05-08T16:38:17.044Z,1.50
2018-05-08T16:40:44.853Z,0.90
2018-05-08T16:43:12.576Z,1.13
2018-05-08T16:45:40.385Z,1.30
2018-05-08T16:48:08.297Z,1.20
2018-05-08T16:50:36.220Z,0.70
2018-05-08T16:53:03.881Z,1.30
2018-05-08T16:55:31.957Z,1.03
2018-05-08T16:57:59.723Z,1.10
2018-05-08T17:00:27.480Z,0.90
2018-05-08T17:02:55.167Z,1.20
2018-05-08T17:05:23.014Z,1.63
2018-05-08T17:07:50.746Z,1.07
2018-05-08T17:10:18.489Z,1.17
2018-05-08T17:12:46.307Z,1.10
2018-05-08T17:15:13.967Z,0.87
2018-05-08T17:17:41.737Z,1.20
2018-05-08T17:20:09.488Z,1.17
2018-05-08T17:22:37.262Z,1.07
2018-05-08T17:25:05.026Z,1.17
2018-05-08T17:27:32.805Z,1.23
2018-05-08T17:30:00.524Z,0.93
2018-05-08T17:32:28.216Z,1.20
2018-05-08T17:34:55.878Z,1.37
2018-05-08T17:37:23.643Z,1.07
2018-05-08T17:39:51.371Z,1.03
2018-05-08T17:42:19.064Z,1.10
2018-05-08T17:44:46.732Z,1.10
2018-05-08T17:47:14.444Z,1.50
2018-05-08T17:49:42.265Z,0.93
2018-05-08T17:52:10.125Z,0.90
2018-05-08T17:54:37.685Z,1.17
2018-05-08T17:57:05.683Z,1.30
2018-05-08T17:59:33.730Z,0.80
2018-05-08T18:02:01.494Z,1.07
2018-05-08T18:04:29.215Z,1.30
2018-05-08T18:06:56.921Z,1.30
2018-05-08T18:09:24.583Z,1.60
2018-05-08T18:11:52.344Z,0.93
2018-05-08T18:14:20.111Z,1.50
2018-05-08T18:16:47.875Z,1.17
2018-05-08T18:19:15.747Z,1.23
2018-05-08T18:21:43.395Z,1.00
2018-05-08T18:24:11.271Z,1.17
2018-05-08T18:26:39.035Z,1.50
2018-05-08T18:29:06.809Z,1.30
2018-05-08T18:31:34.675Z,1.37
2018-05-08T18:34:02.455Z,1.00
2018-05-08T18:36:30.197Z,1.30
2018-05-08T18:38:57.968Z,1.50
2018-05-08T18:41:25.621Z,1.27
2018-05-08T18:43:53.339Z,1.80
2018-05-08T18:46:21.187Z,1.57
2018-05-08T18:48:48.916Z,1.17
2018-05-08T18:51:16.576Z,1.30
2018-05-08T18:53:44.750Z,1.23
2018-05-08T18:56:12.529Z,1.60
2018-05-08T18:58:40.390Z,1.47
2018-05-08T19:01:08.254Z,1.30
2018-05-08T19:03:36.126Z,1.80
2018-05-08T19:06:03.904Z,1.60
2018-05-08T19:08:31.677Z,1.27
2018-05-08T19:11:05.050Z,1.60
2018-05-08T19:13:32.918Z,1.60
2018-05-08T19:16:05.903Z,1.43
2018-05-08T19:18:39.403Z,1.30
2018-05-08T19:21:07.211Z,1.40
2018-05-08T19:23:35.203Z,1.10
2018-05-08T19:26:03.113Z,1.47
2018-05-08T19:28:36.409Z,1.70
2018-05-08T19:31:04.259Z,1.40
2018-05-08T19:33:32.038Z,1.30
2018-05-08T19:36:05.471Z,1.70
2018-05-08T19:38:33.297Z,1.97
2018-05-08T19:41:01.164Z,1.50
2018-05-08T19:43:28.923Z,2.17
2018-05-08T19:45:56.789Z,1.73
2018-05-08T19:48:24.662Z,1.90
2018-05-08T19:50:52.528Z,2.00
2018-05-08T19:53:20.360Z,1.90
2018-05-08T19:55:48.262Z,1.97
2018-05-08T19:58:16.129Z,1.97
2018-05-08T20:00:43.991Z,2.03
2018-05-08T20:03:11.761Z,2.53
2018-05-08T20:05:39.628Z,2.58
2018-05-08T20:08:07.451Z,3.10
2018-05-08T20:10:35.249Z,2.60
2018-05-08T20:13:11.171Z,2.00
2018-05-08T20:15:38.973Z,1.90
2018-05-08T20:18:06.737Z,1.93
2018-05-08T20:20:34.504Z,2.00
2018-05-08T20:23:02.471Z,2.00
2018-05-08T20:25:30.159Z,1.77
2018-05-08T20:27:57.843Z,2.10
2018-05-08T20:30:25.487Z,2.00
2018-05-08T20:32:53.120Z,1.93
2018-05-08T20:35:20.787Z,1.80
2018-05-08T20:37:48.399Z,1.97
2018-05-08T20:40:16.208Z,2.20
2018-05-08T20:42:43.927Z,2.17
2018-05-08T20:45:11.737Z,1.97
2018-05-08T20:47:39.399Z,1.63
2018-05-08T20:50:07.271Z,1.70
2018-05-08T20:52:34.996Z,2.03
2018-05-08T20:55:02.796Z,1.50
2018-05-08T20:57:30.561Z,1.73
2018-05-08T20:59:58.953Z,1.50
2018-05-08T21:02:26.703Z,2.00
2018-05-08T21:04:54.557Z,1.87
2018-05-08T21:07:22.439Z,1.80
2018-05-08T21:09:50.101Z,1.90
2018-05-08T21:12:17.765Z,1.93
2018-05-08T21:14:46.654Z,1.63
2018-05-08T21:17:14.327Z,1.70
2018-05-08T21:19:42.083Z,1.93
2018-05-08T21:22:09.842Z,1.93
2018-05-08T21:24:37.565Z,1.60
2018-05-08T21:27:05.339Z,1.63
2018-05-08T21:29:38.563Z,1.60
2018-05-08T21:32:06.436Z,1.93
2018-05-08T21:34:34.068Z,2.07
2018-05-08T21:37:01.755Z,1.70
2018-05-08T21:39:30.201Z,1.63
2018-05-08T21:41:57.899Z,2.10
2018-05-08T21:44:25.663Z,1.50
2018-05-08T21:46:53.318Z,2.00
2018-05-08T21:49:20.987Z,1.80
2018-05-08T21:51:48.652Z,1.83
2018-05-08T21:54:16.469Z,1.70
2018-05-08T21:56:44.178Z,2.03
2018-05-08T21:59:12.047Z,1.57
2018-05-08T22:01:39.705Z,1.70
2018-05-08T22:04:07.477Z,2.00
2018-05-08T22:06:35.279Z,1.97
2018-05-08T22:09:02.904Z,2.50
2018-05-08T22:11:30.765Z,1.97
2018-05-08T22:13:58.474Z,1.97
2018-05-08T22:16:26.203Z,2.10
2018-05-08T22:18:53.858Z,2.13
2018-05-08T22:21:21.723Z,1.47
2018-05-08T22:23:49.490Z,2.23
2018-05-08T22:26:17.313Z,2.03
2018-05-08T22:28:45.118Z,1.70
2018-05-08T22:31:12.786Z,2.00
2018-05-08T22:33:40.542Z,2.10
2018-05-08T22:36:08.255Z,2.20
2018-05-08T22:38:35.963Z,1.93
2018-05-08T22:41:03.734Z,2.03
2018-05-08T22:43:31.372Z,1.73
2018-05-08T22:45:59.165Z,2.03
2018-05-08T22:48:26.889Z,1.73
2018-05-08T22:50:54.688Z,2.03
2018-05-08T22:53:22.352Z,1.70
2018-05-08T22:55:50.065Z,1.80
2018-05-08T22:58:17.777Z,1.83
2018-05-08T23:00:45.645Z,2.17
2018-05-08T23:03:13.366Z,2.00
2018-05-08T23:05:41.075Z,2.47
2018-05-08T23:08:08.739Z,1.70
2018-05-08T23:10:36.601Z,1.80
2018-05-08T23:13:04.475Z,2.07
2018-05-08T23:15:32.454Z,1.80
2018-05-08T23:18:00.312Z,2.07
2018-05-08T23:20:28.131Z,2.23
2018-05-08T23:22:55.936Z,2.20
2018-05-08T23:25:23.702Z,1.97
2018-05-08T23:27:51.409Z,1.77
2018-05-08T23:30:19.232Z,2.20
2018-05-08T23:32:47.049Z,1.70
2018-05-08T23:35:14.763Z,1.80
2018-05-08T23:37:42.524Z,1.93
2018-05-08T23:40:10.343Z,2.33
2018-05-08T23:42:38.055Z,2.27
2018-05-08T23:45:05.753Z,1.70
2018-05-08T23:47:33.694Z,1.67
2018-05-08T23:50:01.550Z,1.80
2018-05-08T23:52:29.219Z,2.47
2018-05-08T23:54:57.069Z,1.80
2018-05-08T23:57:24.787Z,1.90
2018-05-08T23:59:52.608Z,2.00
